Time;durP1;ratioP1;P1;durP2;ratioP2;P2;SDS_P1;SDS_P2;PMS_P1;PMS_P2;Temp;Humidity;BMP_temperature;BMP_pressure;BME280_temperature;BME280_humidity;BME280_pressure;Samples;Min_cycle;Max_cycle;Signal;HPM_P1;HPM_P2
2023/11/16 00:01:32;;;;;;;3.03;1.13;;;;;;;10.88;100.00;100258.47;5091497;28;20055;-44
2023/11/16 00:04:00;;;;;;;3.67;1.33;;;;;;;10.91;100.00;100264.59;5089915;28;20051;-43
2023/11/16 00:06:35;;;;;;;2.92;1.13;;;;;;;10.99;100.00;100270.31;5091353;28;20130;-44
2023/11/16 00:09:04;;;;;;;3.20;1.00;;;;;;;10.91;100.00;100273.47;5091135;28;20407;-45
2023/11/16 00:11:40;;;;;;;3.13;1.10;;;;;;;10.92;100.00;100260.97;5091130;28;20131;-44
2023/11/16 00:14:10;;;;;;;3.30;1.30;;;;;;;11.09;100.00;100261.63;5091027;28;20052;-44
2023/11/16 00:16:42;;;;;;;3.85;1.15;;;;;;;11.01;100.00;100263.09;5091505;28;20111;-44
2023/11/16 00:19:15;;;;;;;1.48;0.95;;;;;;;11.02;100.00;100267.47;5091320;28;20048;-45
2023/11/16 00:21:45;;;;;;;2.80;1.33;;;;;;;10.96;100.00;100262.50;5091012;28;20059;-42
2023/11/16 00:24:17;;;;;;;3.47;1.17;;;;;;;11.11;100.00;100272.25;5090764;28;20062;-44
2023/11/16 00:26:50;;;;;;;3.20;1.40;;;;;;;11.10;100.00;100275.88;5091016;28;20067;-43
2023/11/16 00:29:18;;;;;;;3.28;1.20;;;;;;;11.12;100.00;100279.28;5091135;28;20044;-44
2023/11/16 00:31:50;;;;;;;2.30;1.10;;;;;;;11.17;100.00;100290.53;5091412;28;20398;-43
2023/11/16 00:34:19;;;;;;;3.08;1.20;;;;;;;11.18;100.00;100290.44;5091240;28;20454;-44
2023/11/16 00:36:53;;;;;;;2.28;1.02;;;;;;;11.05;100.00;100304.63;5091264;28;20518;-43
2023/11/16 00:39:22;;;;;;;;;;;;;;;11.04;100.00;100298.44;5091438;28;20127;-43
2023/11/16 00:41:51;;;;;;;5.20;1.20;;;;;;;11.07;100.00;100298.25;5091104;28;20365;-44
2023/11/16 00:44:21;;;;;;;2.22;1.20;;;;;;;11.06;100.00;100311.69;5090938;28;20051;-43
2023/11/16 00:46:51;;;;;;;2.38;1.10;;;;;;;11.03;100.00;100322.56;5091061;28;20147;-44
2023/11/16 00:49:19;;;;;;;2.28;1.00;;;;;;;11.06;100.00;100314.34;5091294;28;20044;-43
2023/11/16 00:51:50;;;;;;;4.25;1.27;;;;;;;10.94;100.00;100304.44;5090789;28;20109;-43
2023/11/16 00:54:26;;;;;;;5.10;1.40;;;;;;;10.87;100.00;100315.47;5090741;28;20078;-42
2023/11/16 00:56:55;;;;;;;2.50;1.20;;;;;;;10.88;100.00;100303.84;5091037;28;20059;-43
2023/11/16 00:59:23;;;;;;;2.33;1.00;;;;;;;10.99;100.00;100305.00;5090938;28;20127;-44
2023/11/16 01:01:56;;;;;;;1.60;0.90;;;;;;;10.84;100.00;100297.00;5090537;28;20052;-43
2023/11/16 01:04:24;;;;;;;3.22;1.27;;;;;;;10.72;100.00;100295.06;5090504;28;20056;-43
2023/11/16 01:06:53;;;;;;;3.38;1.20;;;;;;;10.68;100.00;100298.84;5090644;28;20489;-43
2023/11/16 01:09:22;;;;;;;4.25;1.20;;;;;;;10.75;100.00;100299.34;5090758;28;20044;-43
2023/11/16 01:11:57;;;;;;;3.00;1.27;;;;;;;10.62;100.00;100301.03;5090901;28;20096;-43
2023/11/16 01:14:28;;;;;;;3.17;1.15;;;;;;;10.74;100.00;100297.63;5090626;28;20067;-43
2023/11/16 01:17:01;;;;;;;3.40;1.20;;;;;;;10.63;100.00;100303.63;5090630;28;20048;-45
2023/11/16 01:19:32;;;;;;;5.03;1.23;;;;;;;10.61;100.00;100305.50;5091136;28;20535;-44
2023/11/16 01:22:03;;;;;;;2.70;1.50;;;;;;;10.62;100.00;100306.38;5090621;28;20139;-45
2023/11/16 01:24:35;;;;;;;3.40;1.50;;;;;;;10.47;100.00;100314.31;5090280;28;20139;-43
2023/11/16 01:27:15;;;;;;;2.53;1.23;;;;;;;10.59;100.00;100310.94;5090603;28;20040;-44
2023/11/16 01:30:12;;;;;;;3.67;1.60;;;;;;;10.58;100.00;100308.34;5090319;28;20052;-43
2023/11/16 01:33:32;;;;;;;3.20;1.30;;;;;;;10.56;100.00;100307.59;5090043;28;20529;-44
2023/11/16 01:36:19;;;;;;;3.35;1.30;;;;;;;10.57;100.00;100311.97;5093457;28;20109;-44
2023/11/16 01:39:10;;;;;;;2.70;1.30;;;;;;;10.67;100.00;100301.63;5094031;28;20423;-43
2023/11/16 01:42:20;;;;;;;3.20;1.25;;;;;;;10.63;100.00;100314.28;5064723;28;20063;-44
2023/11/16 01:45:32;;;;;;;4.40;1.63;;;;;;;10.62;100.00;100312.56;5093795;28;20095;-43
2023/11/16 01:48:06;;;;;;;4.57;1.10;;;;;;;10.69;100.00;100307.72;5093889;28;20056;-44
2023/11/16 01:50:39;;;;;;;2.67;1.30;;;;;;;10.72;100.00;100308.41;5093807;28;20510;-44
2023/11/16 01:53:13;;;;;;;2.60;1.30;;;;;;;10.53;100.00;100319.31;5092816;28;20469;-44
2023/11/16 01:55:48;;;;;;;2.40;1.20;;;;;;;10.69;100.00;100321.91;5093784;28;20055;-44
2023/11/16 01:58:18;;;;;;;2.55;1.20;;;;;;;10.67;100.00;100325.63;5093863;28;20054;-45
2023/11/16 02:00:51;;;;;;;2.92;1.10;;;;;;;10.64;100.00;100325.81;5093602;28;20074;-45
2023/11/16 02:03:21;;;;;;;3.53;1.30;;;;;;;10.67;100.00;100331.81;5093592;28;20040;-44
2023/11/16 02:05:50;;;;;;;3.05;1.30;;;;;;;10.51;100.00;100336.31;5093786;28;20056;-44
2023/11/16 02:08:23;;;;;;;2.35;1.05;;;;;;;10.51;100.00;100341.66;5093772;28;20048;-44
2023/11/16 02:10:56;;;;;;;1.73;1.20;;;;;;;10.46;100.00;100341.09;5093591;28;20060;-43
2023/11/16 02:13:31;;;;;;;2.10;1.20;;;;;;;10.48;100.00;100349.84;5093289;28;20044;-45
2023/11/16 02:16:01;;;;;;;2.08;1.23;;;;;;;10.48;100.00;100355.19;5093562;28;20590;-44
2023/11/16 02:18:34;;;;;;;2.50;1.30;;;;;;;10.46;100.00;100357.09;5093473;28;20048;-43
2023/11/16 02:21:09;;;;;;;3.00;1.10;;;;;;;10.53;100.00;100361.97;5093296;28;20138;-44
2023/11/16 02:23:42;;;;;;;2.50;1.20;;;;;;;10.56;100.00;100372.47;5093034;28;20489;-44
2023/11/16 02:26:12;;;;;;;3.47;1.33;;;;;;;10.59;100.00;100368.75;5093041;28;20055;-45
2023/11/16 02:28:40;;;;;;;2.28;1.15;;;;;;;10.53;100.00;100367.31;5093300;28;20047;-45
2023/11/16 02:31:09;;;;;;;3.42;1.15;;;;;;;10.43;100.00;100367.94;5093332;28;20408;-44
2023/11/16 02:33:37;;;;;;;3.20;1.17;;;;;;;10.54;100.00;100368.16;5093052;28;20132;-44
2023/11/16 02:36:11;;;;;;;2.45;1.15;;;;;;;10.59;100.00;100371.41;5093085;28;20051;-43
2023/11/16 02:38:41;;;;;;;3.05;1.30;;;;;;;10.65;100.00;100365.72;5092743;28;20044;-44
2023/11/16 02:41:09;;;;;;;5.68;1.50;;;;;;;10.54;100.00;100365.50;5093180;28;20040;-44
2023/11/16 02:43:38;;;;;;;3.08;1.20;;;;;;;10.52;100.00;100364.75;5092565;28;20137;-43
2023/11/16 02:46:06;;;;;;;2.42;1.33;;;;;;;10.65;100.00;100360.41;5091322;28;20518;-43
2023/11/16 02:48:35;;;;;;;3.55;1.20;;;;;;;10.46;100.00;100362.41;5092515;28;20583;-43
2023/11/16 02:51:04;;;;;;;2.80;1.33;;;;;;;10.59;100.00;100360.75;5092619;28;20048;-44
2023/11/16 02:53:36;;;;;;;2.13;1.00;;;;;;;10.48;100.00;100363.19;5092828;28;20044;-43
2023/11/16 02:56:08;;;;;;;4.15;1.50;;;;;;;10.53;100.00;100367.31;5092644;28;20052;-44
2023/11/16 02:58:41;;;;;;;1.92;0.90;;;;;;;10.46;100.00;100365.09;5092604;28;20044;-43
2023/11/16 03:01:09;;;;;;;2.55;0.82;;;;;;;10.45;100.00;100368.69;5092558;28;20437;-45
2023/11/16 03:03:38;;;;;;;2.38;0.82;;;;;;;10.49;100.00;100364.91;5091091;28;20059;-43
2023/11/16 03:06:08;;;;;;;2.88;1.10;;;;;;;10.54;100.00;100365.50;5092255;28;20052;-43
2023/11/16 03:08:41;;;;;;;2.05;1.10;;;;;;;10.59;100.00;100366.09;5092579;28;20044;-43
2023/11/16 03:11:13;;;;;;;3.50;1.30;;;;;;;10.48;100.00;100363.19;5092615;28;20782;-44
2023/11/16 03:13:42;;;;;;;1.83;0.80;;;;;;;10.31;100.00;100374.81;5092479;28;20134;-44
2023/11/16 03:16:14;;;;;;;1.98;1.00;;;;;;;10.31;100.00;100377.47;5091794;28;20495;-43
2023/11/16 03:18:42;;;;;;;2.33;1.27;;;;;;;10.35;100.00;100383.50;5092407;28;20127;-45
2023/11/16 03:21:11;;;;;;;3.13;1.00;;;;;;;10.30;100.00;100387.28;5092263;28;20040;-44
2023/11/16 03:24:14;;;;;;;3.03;1.20;;;;;;;10.43;100.00;100390.13;5092127;28;20059;-43
2023/11/16 03:27:05;;;;;;;2.70;0.88;;;;;;;10.35;100.00;100394.19;5091821;28;20141;-44
2023/11/16 03:30:18;;;;;;;2.28;1.20;;;;;;;10.39;100.00;100395.72;5092074;28;20170;-44
2023/11/16 03:33:00;;;;;;;1.98;1.08;;;;;;;10.36;100.00;100401.22;5091979;28;20077;-43
2023/11/16 03:35:34;;;;;;;2.60;1.00;;;;;;;10.38;100.00;100394.84;5091167;28;20434;-43
2023/11/16 03:38:38;;;;;;;1.85;1.00;;;;;;;10.37;100.00;100398.47;5088078;28;20052;-45
2023/11/16 03:41:21;;;;;;;2.78;1.05;;;;;;;10.32;100.00;100404.03;5091840;28;20055;-43
2023/11/16 03:44:02;;;;;;;2.83;1.02;;;;;;;10.26;100.00;100401.75;5091339;28;20047;-43
2023/11/16 03:47:06;;;;;;;3.28;1.20;;;;;;;10.27;100.00;100402.59;5091595;28;20063;-43
2023/11/16 03:49:58;;;;;;;2.15;1.23;;;;;;;10.32;100.00;100403.19;5091479;28;20408;-46
2023/11/16 03:52:48;;;;;;;2.13;0.90;;;;;;;10.21;100.00;100408.25;5091556;28;20058;-43
2023/11/16 03:58:45;;;;;;;0.98;0.85;;;;;;;10.20;100.00;100412.72;5091224;28;20170;-43
2023/11/16 04:01:48;;;;;;;1.85;0.95;;;;;;;10.15;100.00;100413.94;5091526;28;20136;-44
2023/11/16 04:04:47;;;;;;;3.58;1.10;;;;;;;10.11;100.00;100405.22;5082555;28;20055;-44
2023/11/16 04:07:45;;;;;;;3.20;1.27;;;;;;;10.10;100.00;100407.97;5090960;28;20048;-45
2023/11/16 04:10:51;;;;;;;1.50;1.00;;;;;;;10.09;100.00;100404.47;5091346;28;20055;-43
2023/11/16 04:13:55;;;;;;;2.63;1.00;;;;;;;10.10;100.00;100403.50;5086617;28;20138;-45
2023/11/16 04:16:52;;;;;;;2.40;1.30;;;;;;;10.03;100.00;100402.13;5091099;28;20051;-46
2023/11/16 04:19:40;;;;;;;2.38;1.05;;;;;;;10.14;100.00;100407.75;5091320;28;20105;-44
2023/11/16 04:22:34;;;;;;;2.67;1.33;;;;;;;10.03;100.00;100413.63;5091006;28;20133;-46
2023/11/16 04:25:39;;;;;;;3.92;1.40;;;;;;;10.08;100.00;100413.41;5090375;28;20059;-44
2023/11/16 04:32:01;;;;;;;3.05;1.02;;;;;;;10.09;100.00;100414.25;5091395;28;20063;-45
2023/11/16 04:34:44;;;;;;;2.42;1.15;;;;;;;9.99;100.00;100416.56;5090804;28;20079;-46
2023/11/16 04:38:04;;;;;;;2.20;1.10;;;;;;;9.87;100.00;100417.25;5090934;28;20051;-44
2023/11/16 04:41:07;;;;;;;3.33;1.20;;;;;;;9.99;100.00;100411.25;5090849;28;20109;-44
2023/11/16 04:43:55;;;;;;;3.35;1.08;;;;;;;10.01;100.00;100428.00;5090379;28;20132;-43
2023/11/16 04:46:46;;;;;;;2.13;0.93;;;;;;;9.91;100.00;100414.31;5090873;28;20127;-44
2023/11/16 04:50:10;;;;;;;;;;;;;;;;;;;;;
2023/11/16 04:53:03;;;;;;;2.67;1.20;;;;;;;9.69;100.00;100416.44;5090673;28;20495;-43
2023/11/16 04:55:51;;;;;;;5.00;1.52;;;;;;;9.71;100.00;100412.75;5091098;28;20055;-43
2023/11/16 04:58:27;;;;;;;2.30;1.27;;;;;;;9.75;100.00;100414.31;5090484;28;20128;-45
2023/11/16 05:01:09;;;;;;;2.25;1.25;;;;;;;9.80;100.00;100423.84;5090625;28;20434;-44
2023/11/16 05:03:58;;;;;;;2.35;1.20;;;;;;;9.84;100.00;100431.59;5090643;28;20044;-45
2023/11/16 05:06:57;;;;;;;3.78;1.50;;;;;;;9.86;100.00;100435.03;5090465;28;20051;-45
2023/11/16 05:09:52;;;;;;;3.15;1.02;;;;;;;9.94;100.00;100439.94;5091512;28;20066;-44
2023/11/16 05:12:57;;;;;;;2.38;1.40;;;;;;;9.92;100.00;100460.47;5091733;28;20055;-43
2023/11/16 05:15:52;;;;;;;3.75;1.42;;;;;;;9.79;100.00;100454.97;5094449;28;20131;-43
2023/11/16 05:18:41;;;;;;;3.95;1.35;;;;;;;9.89;100.00;100463.31;5094156;28;20059;-43
2023/11/16 05:21:45;;;;;;;2.70;1.02;;;;;;;9.91;100.00;100454.28;5094630;28;20453;-43
2023/11/16 05:27:33;;;;;;;3.85;1.58;;;;;;;9.94;100.00;100458.59;5093861;28;20047;-43
2023/11/16 05:30:44;;;;;;;2.17;1.15;;;;;;;9.99;100.00;100467.22;5094414;28;20052;-45
2023/11/16 05:33:53;;;;;;;3.80;1.40;;;;;;;9.90;100.00;100462.38;5094137;28;20516;-43
2023/11/16 05:36:52;;;;;;;;;;;;;;;;;;;;;
2023/11/16 05:39:31;;;;;;;;;;;;;;;9.92;100.00;100460.47;5080530;28;20048;-42
2023/11/16 05:43:11;;;;;;;4.78;1.65;;;;;;;9.86;100.00;100467.03;5094279;28;20296;-43
2023/11/16 05:45:59;;;;;;;5.32;1.58;;;;;;;9.87;100.00;100473.22;5075010;28;20481;-44
2023/11/16 05:49:03;;;;;;;3.35;1.58;;;;;;;9.69;100.00;100481.22;5094030;28;20079;-45
2023/11/16 05:51:42;;;;;;;3.25;1.80;;;;;;;9.58;100.00;100490.72;5094345;28;20462;-43
2023/11/16 05:54:41;;;;;;;4.07;2.10;;;;;;;9.54;100.00;100484.69;5094163;28;20062;-42
2023/11/16 05:57:41;;;;;;;4.45;1.90;;;;;;;9.64;100.00;100480.59;5094012;28;20481;-43
2023/11/16 06:00:15;;;;;;;6.32;1.88;;;;;;;9.43;100.00;100492.38;5093766;28;20144;-45
2023/11/16 06:02:45;;;;;;;4.57;1.80;;;;;;;9.39;100.00;100486.34;5094505;28;20040;-44
2023/11/16 06:05:14;;;;;;;5.40;2.08;;;;;;;9.24;100.00;100486.28;5094059;28;20610;-42
2023/11/16 06:07:43;;;;;;;5.80;2.20;;;;;;;9.26;100.00;100492.38;5093836;28;20054;-44
2023/11/16 06:10:16;;;;;;;6.72;2.17;;;;;;;9.30;100.00;100504.59;5093750;28;20051;-45
2023/11/16 06:12:46;;;;;;;;;;;;;;;8.88;100.00;100495.19;5094551;28;20040;-44
2023/11/16 06:15:19;;;;;;;5.10;2.20;;;;;;;9.03;100.00;100498.84;5093709;28;19927;-44
2023/11/16 06:17:58;;;;;;;4.90;1.90;;;;;;;9.08;100.00;100497.72;5093706;28;20108;-44
2023/11/16 06:20:35;;;;;;;5.68;2.00;;;;;;;9.24;100.00;100507.56;5093645;28;20074;-44
2023/11/16 06:23:08;;;;;;;3.40;1.75;;;;;;;9.04;100.00;100509.41;5093664;28;20123;-45
2023/11/16 06:25:36;;;;;;;6.22;2.30;;;;;;;8.89;100.00;100507.53;5093655;28;20044;-44
2023/11/16 06:28:10;;;;;;;5.45;2.55;;;;;;;9.01;100.00;100501.59;5093546;28;20060;-44
2023/11/16 06:31:06;;;;;;;5.63;2.10;;;;;;;9.02;100.00;100505.13;5093414;28;20048;-44
2023/11/16 06:33:36;;;;;;;5.93;2.42;;;;;;;9.29;100.00;100513.53;5088960;28;20044;-44
2023/11/16 06:36:10;;;;;;;4.47;2.22;;;;;;;9.36;100.00;100509.59;5093000;28;20086;-43
2023/11/16 06:38:47;;;;;;;5.10;2.20;;;;;;;9.60;100.00;100519.00;5092994;28;20124;-44
2023/11/16 06:41:17;;;;;;;7.13;2.55;;;;;;;9.58;100.00;100514.69;5092109;28;20143;-45
2023/11/16 06:43:47;;;;;;;6.30;2.22;;;;;;;9.50;100.00;100512.44;5091764;28;20052;-43
2023/11/16 06:46:17;;;;;;;7.00;2.67;;;;;;;9.03;100.00;100507.69;5093115;28;20472;-44
2023/11/16 06:48:47;;;;;;;4.90;2.28;;;;;;;9.22;100.00;100517.44;5092982;28;20081;-44
2023/11/16 06:51:17;;;;;;;5.13;2.45;;;;;;;9.41;100.00;100515.56;5092746;28;20578;-44
2023/11/16 06:53:48;;;;;;;5.85;2.08;;;;;;;9.56;100.00;100522.78;5092890;28;20044;-44
2023/11/16 06:56:17;;;;;;;4.80;2.40;;;;;;;9.65;100.00;100527.63;5092572;28;20048;-44
2023/11/16 06:58:50;;;;;;;4.95;2.33;;;;;;;9.74;100.00;100520.94;5091670;28;20101;-45
2023/11/16 07:01:29;;;;;;;5.10;2.58;;;;;;;9.90;100.00;100526.31;5092413;28;20098;-44
2023/11/16 07:04:05;;;;;;;4.72;2.60;;;;;;;9.96;100.00;100536.66;5092689;28;20080;-44
2023/11/16 07:06:34;;;;;;;5.60;2.35;;;;;;;10.10;100.00;100527.91;5092819;28;20051;-44
2023/11/16 07:09:07;;;;;;;5.68;2.47;;;;;;;10.16;100.00;100523.13;5092622;28;20469;-44
2023/11/16 07:11:36;;;;;;;8.18;2.67;;;;;;;10.10;100.00;100523.44;5092882;28;20048;-45
2023/11/16 07:14:08;;;;;;;5.47;2.75;;;;;;;10.22;100.00;100522.81;5093069;28;20437;-45
2023/11/16 07:16:42;;;;;;;8.70;2.70;;;;;;;10.35;100.00;100533.69;5092651;28;20186;-45
2023/11/16 07:19:13;;;;;;;5.32;2.28;;;;;;;10.42;100.00;100528.84;5092906;28;20284;-47
2023/11/16 07:21:43;;;;;;;6.95;2.30;;;;;;;10.46;100.00;100531.28;5092617;28;20052;-44
2023/11/16 07:24:13;;;;;;;4.47;2.40;;;;;;;10.54;100.00;100536.22;5091993;28;20055;-45
2023/11/16 07:26:42;;;;;;;8.43;2.45;;;;;;;10.43;100.00;100526.13;5092379;28;20128;-44
2023/11/16 07:29:11;;;;;;;6.32;2.75;;;;;;;10.47;100.00;100530.34;5092296;28;20101;-45
2023/11/16 07:31:48;;;;;;;5.18;2.20;;;;;;;10.44;100.00;100540.31;5092524;28;20044;-44
2023/11/16 07:34:23;;;;;;;5.72;2.30;;;;;;;10.60;100.00;100536.69;5092150;28;20127;-44
2023/11/16 07:36:54;;;;;;;7.18;2.20;;;;;;;10.70;100.00;100533.53;5092221;28;20048;-43
2023/11/16 07:39:24;;;;;;;4.50;1.77;;;;;;;10.64;100.00;100532.06;5092032;28;20301;-45
2023/11/16 07:41:57;;;;;;;2.78;1.52;;;;;;;10.58;100.00;100538.59;5091404;28;20556;-45
2023/11/16 07:44:31;;;;;;;3.10;1.30;;;;;;;10.67;100.00;100539.03;5090972;28;20479;-44
2023/11/16 07:47:01;;;;;;;5.38;2.30;;;;;;;10.60;100.00;100534.03;5091165;28;20052;-44
2023/11/16 07:49:36;;;;;;;3.65;1.73;;;;;;;10.86;100.00;100540.59;5091079;28;20048;-45
2023/11/16 07:52:10;;;;;;;4.50;1.50;;;;;;;10.97;100.00;100534.63;5091576;28;20412;-45
2023/11/16 07:54:45;;;;;;;3.03;1.55;;;;;;;11.05;100.00;100529.72;5091295;28;20055;-44
2023/11/16 07:57:20;;;;;;;4.68;1.55;;;;;;;11.12;100.00;100535.56;5091781;28;20093;-45
2023/11/16 07:59:49;;;;;;;4.53;1.77;;;;;;;11.11;100.00;100539.19;5091353;28;20044;-45
2023/11/16 08:02:25;;;;;;;4.00;1.60;;;;;;;11.21;100.00;100532.38;5091468;28;20047;-46
2023/11/16 08:04:54;;;;;;;5.03;1.58;;;;;;;11.14;100.00;100534.53;5089990;28;20429;-46
2023/11/16 08:07:23;;;;;;;4.38;1.30;;;;;;;11.35;100.00;100536.88;5091532;28;20488;-44
2023/11/16 08:09:51;;;;;;;6.30;1.50;;;;;;;11.44;100.00;100537.22;5091578;28;20066;-45
2023/11/16 08:12:20;;;;;;;5.20;1.45;;;;;;;11.32;100.00;100537.06;5091618;28;20048;-45
2023/11/16 08:14:52;;;;;;;4.57;1.63;;;;;;;11.56;100.00;100529.41;5091665;28;20075;-46
2023/11/16 08:17:20;;;;;;;3.00;1.50;;;;;;;11.63;100.00;100539.63;5091474;28;20044;-47
2023/11/16 08:27:56;;;;;;;3.80;1.20;;;;;;;11.57;100.00;100541.81;5130508;27;20054;-44
2023/11/16 08:30:26;;;;;;;;;;;;;;;11.69;100.00;100538.44;5131552;28;20457;-45
2023/11/16 08:32:55;;;;;;;3.80;1.17;;;;;;;11.94;100.00;100541.34;5131764;28;19919;-45
2023/11/16 08:35:24;;;;;;;3.55;1.40;;;;;;;11.87;100.00;100544.47;5131477;27;20039;-45
2023/11/16 08:37:53;;;;;;;5.47;1.45;;;;;;;11.95;100.00;100548.41;5131653;28;20126;-44
2023/11/16 08:40:23;;;;;;;2.92;1.30;;;;;;;12.09;100.00;100544.91;5131547;27;20043;-44
2023/11/16 08:42:56;;;;;;;3.83;1.20;;;;;;;12.35;100.00;100545.94;5131896;28;20093;-44
2023/11/16 08:45:28;;;;;;;4.13;1.45;;;;;;;12.18;100.00;100548.81;5135942;27;20127;-45
2023/11/16 08:47:59;;;;;;;3.50;1.40;;;;;;;12.27;100.00;100550.94;5136496;27;20134;-47
2023/11/16 08:50:27;;;;;;;3.95;1.20;;;;;;;12.25;100.00;100539.44;5136571;27;20058;-45
2023/11/16 08:52:57;;;;;;;3.08;1.35;;;;;;;12.38;100.00;100539.56;5137299;27;20067;-45
2023/11/16 08:55:25;;;;;;;3.80;1.50;;;;;;;12.53;100.00;100531.41;5137066;27;20047;-46
2023/11/16 08:57:57;;;;;;;3.47;1.27;;;;;;;12.32;100.00;100544.31;5136139;27;20051;-46
2023/11/16 09:00:28;;;;;;;4.03;1.27;;;;;;;12.20;100.00;100541.56;5135709;27;20296;-45
2023/11/16 09:02:57;;;;;;;4.43;1.40;;;;;;;12.06;100.00;100533.53;5135573;27;20126;-44
2023/11/16 09:05:28;;;;;;;3.13;0.90;;;;;;;12.01;100.00;100537.34;5135224;27;20089;-44
2023/11/16 09:07:59;;;;;;;2.40;1.15;;;;;;;12.05;100.00;100538.00;5135168;27;20035;-45
2023/11/16 09:10:27;;;;;;;5.80;1.30;;;;;;;12.36;100.00;100546.81;5135201;27;20057;-44
2023/11/16 09:12:56;;;;;;;3.08;1.10;;;;;;;12.27;100.00;100537.56;5134742;27;20429;-46
2023/11/16 09:15:25;;;;;;;2.55;1.17;;;;;;;12.25;100.00;100539.44;5134946;27;20047;-44
2023/11/16 09:17:58;;;;;;;4.70;1.38;;;;;;;12.27;100.00;100542.91;5134457;27;20055;-43
2023/11/16 09:20:28;;;;;;;2.60;1.20;;;;;;;12.35;100.00;100540.59;5135026;27;20142;-45
2023/11/16 09:22:58;;;;;;;5.15;1.35;;;;;;;12.47;100.00;100533.63;5134859;27;20055;-45
2023/11/16 09:25:29;;;;;;;3.40;0.90;;;;;;;12.72;100.00;100532.91;5134707;27;20492;-45
2023/11/16 09:28:01;;;;;;;2.15;0.95;;;;;;;12.88;100.00;100538.97;5134456;27;20047;-45
2023/11/16 09:30:32;;;;;;;3.78;1.10;;;;;;;12.75;100.00;100543.41;5116677;27;20043;-44
2023/11/16 09:33:03;;;;;;;3.78;1.20;;;;;;;12.74;100.00;100541.69;5135566;27;20411;-47
2023/11/16 09:35:31;;;;;;;5.20;1.20;;;;;;;12.76;100.00;100534.44;5134854;27;20429;-45
2023/11/16 09:38:08;;;;;;;2.95;1.20;;;;;;;12.78;100.00;100530.69;5134840;27;20150;-44
2023/11/16 09:40:37;;;;;;;3.38;1.10;;;;;;;12.70;100.00;100521.44;5134712;27;20131;-45
2023/11/16 09:43:17;;;;;;;4.57;1.05;;;;;;;12.95;100.00;100512.69;5134921;27;20074;-46
2023/11/16 09:45:48;;;;;;;3.30;1.42;;;;;;;13.03;100.00;100511.22;5134886;27;20043;-45
2023/11/16 09:48:20;;;;;;;3.20;1.02;;;;;;;12.87;100.00;100508.69;5134849;27;20050;-45
2023/11/16 09:50:53;;;;;;;2.97;1.10;;;;;;;12.84;100.00;100502.69;5134636;27;20096;-46
2023/11/16 09:53:23;;;;;;;2.42;1.10;;;;;;;12.69;100.00;100495.63;5134625;27;20047;-47
2023/11/16 09:55:56;;;;;;;4.38;1.48;;;;;;;13.07;100.00;100490.44;5133950;27;20051;-44
2023/11/16 09:58:28;;;;;;;4.47;1.10;;;;;;;13.22;100.00;100497.50;5134700;27;20051;-45
2023/11/16 10:00:57;;;;;;;3.35;1.20;;;;;;;13.23;100.00;100490.31;5134517;27;20043;-45
2023/11/16 10:03:30;;;;;;;2.13;1.13;;;;;;;13.21;100.00;100487.72;5134949;27;20070;-46
2023/11/16 10:06:04;;;;;;;3.63;1.23;;;;;;;13.27;100.00;100481.94;5134179;27;20086;-44
2023/11/16 10:08:34;;;;;;;2.80;1.10;;;;;;;13.39;100.00;100474.88;5133968;27;20050;-44
2023/11/16 10:11:05;;;;;;;3.75;1.02;;;;;;;13.38;100.00;100475.84;5134215;27;20423;-44
2023/11/16 10:13:36;;;;;;;;;;;;;;;13.31;100.00;100467.38;5134247;27;20138;-45
2023/11/16 10:16:06;;;;;;;3.90;0.98;;;;;;;13.32;100.00;100469.13;5133864;27;19919;-46
2023/11/16 10:18:37;;;;;;;4.25;1.02;;;;;;;13.48;100.00;100458.19;5133820;27;20083;-44
2023/11/16 10:21:06;;;;;;;2.80;1.20;;;;;;;13.37;100.00;100456.25;5133813;27;20104;-43
2023/11/16 10:23:35;;;;;;;2.75;0.95;;;;;;;13.51;100.00;100458.00;5134082;27;20039;-44
2023/11/16 10:26:05;;;;;;;4.03;1.00;;;;;;;13.40;100.00;100450.66;5134076;27;20054;-45
2023/11/16 10:28:38;;;;;;;2.63;0.90;;;;;;;13.29;100.00;100453.22;5133724;27;20051;-46
2023/11/16 10:31:08;;;;;;;7.60;1.50;;;;;;;13.45;100.00;100453.03;5133994;27;20051;-43
2023/11/16 10:33:46;;;;;;;3.85;1.10;;;;;;;13.48;100.00;100450.16;5134086;27;20419;-46
2023/11/16 10:36:15;;;;;;;2.22;1.15;;;;;;;13.63;100.00;100443.72;5134091;27;20050;-45
2023/11/16 10:38:45;;;;;;;2.72;0.80;;;;;;;13.75;100.00;100445.53;5133699;27;20051;-44
2023/11/16 10:41:14;;;;;;;5.10;1.23;;;;;;;13.75;100.00;100445.53;5133787;27;20092;-45
2023/11/16 10:43:44;;;;;;;3.38;1.00;;;;;;;13.68;100.00;100435.34;5115182;27;20491;-46
2023/11/16 10:46:14;;;;;;;3.58;1.10;;;;;;;13.67;100.00;100431.81;5133576;27;20059;-44
2023/11/16 10:48:44;;;;;;;3.38;1.10;;;;;;;13.67;100.00;100436.31;5133811;27;20062;-45
2023/11/16 10:51:13;;;;;;;1.35;0.80;;;;;;;13.61;100.00;100424.22;5133612;27;20130;-44
2023/11/16 10:53:42;;;;;;;2.15;0.77;;;;;;;13.48;100.00;100430.53;5133410;27;20357;-45
2023/11/16 10:56:13;;;;;;;4.25;0.70;;;;;;;13.50;100.00;100424.09;5133393;27;20047;-43
2023/11/16 10:58:47;;;;;;;4.03;0.70;;;;;;;13.58;100.00;100431.59;5133585;27;20131;-43
2023/11/16 11:01:18;;;;;;;1.77;0.70;;;;;;;13.53;100.00;100423.91;5133230;27;20043;-44
2023/11/16 11:03:50;;;;;;;4.20;0.95;;;;;;;13.35;100.00;100419.81;5133469;27;20050;-44
2023/11/16 11:06:19;;;;;;;1.45;0.52;;;;;;;13.31;100.00;100412.94;5114899;27;20057;-44
2023/11/16 11:08:53;;;;;;;1.88;0.70;;;;;;;13.58;100.00;100416.38;5133121;27;20039;-44
2023/11/16 11:11:25;;;;;;;1.65;0.70;;;;;;;13.42;100.00;100416.63;5133215;27;20051;-45
2023/11/16 11:13:56;;;;;;;2.05;0.75;;;;;;;13.32;100.00;100401.28;5133531;27;20055;-45
2023/11/16 11:16:27;;;;;;;1.02;0.68;;;;;;;13.29;100.00;100410.38;5133252;27;20188;-45
2023/11/16 11:18:59;;;;;;;3.30;1.05;;;;;;;13.08;100.00;100407.31;5133339;27;20081;-44
2023/11/16 11:21:28;;;;;;;1.95;0.70;;;;;;;13.15;100.00;100408.63;5133367;27;20046;-45
2023/11/16 11:24:04;;;;;;;2.28;0.75;;;;;;;13.21;100.00;100398.47;5133335;27;20047;-45
2023/11/16 11:26:41;;;;;;;3.63;1.17;;;;;;;13.09;100.00;100392.09;5132688;27;20043;-51
2023/11/16 11:29:10;;;;;;;3.47;1.30;;;;;;;13.14;100.00;100390.84;5132500;27;20376;-45
2023/11/16 11:31:55;;;;;;;3.95;1.45;;;;;;;13.24;100.00;100384.88;5132271;27;20100;-45
2023/11/16 11:34:39;;;;;;;2.33;0.95;;;;;;;13.34;100.00;100384.13;5132721;27;20130;-45
2023/11/16 11:37:11;;;;;;;2.17;0.90;;;;;;;13.28;100.00;100381.00;5132948;27;20108;-46
2023/11/16 11:39:45;;;;;;;3.53;1.10;;;;;;;13.33;100.00;100368.16;5132637;27;20051;-43
2023/11/16 11:42:16;;;;;;;4.82;1.50;;;;;;;13.49;100.00;100358.06;5115102;27;20039;-44
2023/11/16 11:44:52;;;;;;;3.80;1.00;;;;;;;13.52;100.00;100357.88;5132858;27;20047;-44
2023/11/16 11:47:24;;;;;;;2.30;1.20;;;;;;;13.78;100.00;100360.50;5114199;27;20043;-44
2023/11/16 11:49:56;;;;;;;3.95;1.27;;;;;;;13.90;100.00;100356.97;5132422;27;20055;-44
2023/11/16 11:52:25;;;;;;;1.38;0.70;;;;;;;14.01;100.00;100354.34;5132424;27;20122;-45
2023/11/16 11:54:54;;;;;;;5.72;1.20;;;;;;;14.02;100.00;100350.69;5132155;27;20054;-45
2023/11/16 11:57:23;;;;;;;2.83;0.98;;;;;;;14.13;100.00;100348.09;5132545;27;20043;-43
2023/11/16 12:00:06;;;;;;;4.40;1.23;;;;;;;14.20;100.00;100349.34;5132348;27;20043;-45
2023/11/16 12:02:37;;;;;;;4.75;1.65;;;;;;;14.19;100.00;100349.47;5132597;27;20051;-44
2023/11/16 12:05:19;;;;;;;4.90;1.70;;;;;;;14.16;100.00;100338.94;5132179;27;20062;-44
2023/11/16 12:07:58;;;;;;;5.30;1.40;;;;;;;14.22;100.00;100346.56;5132153;27;20130;-44
2023/11/16 12:10:29;;;;;;;3.90;1.17;;;;;;;14.16;100.00;100342.47;5132272;27;20423;-45
2023/11/16 12:12:59;;;;;;;2.78;1.13;;;;;;;14.08;100.00;100339.50;5132018;27;20122;-45
2023/11/16 12:15:31;;;;;;;2.75;1.13;;;;;;;14.12;100.00;100346.38;5132718;27;20074;-46
2023/11/16 12:18:05;;;;;;;3.78;1.30;;;;;;;14.11;100.00;100349.19;5131851;27;20687;-44
2023/11/16 12:20:37;;;;;;;2.95;1.10;;;;;;;14.15;100.00;100346.13;5131894;27;20581;-44
2023/11/16 12:23:08;;;;;;;3.33;1.30;;;;;;;14.23;100.00;100345.59;5131669;27;20049;-44